sensor_id;sensor_type;location;lat;lon;timestamp;pressure;altitude;pressure_sealevel;temperature;humidity
55916;BME280;41826;53.246;-6.670;2023-05-02T00:00:08;100969.16;;;9.61;100.00
55916;BME280;41826;53.246;-6.670;2023-05-02T00:02:33;100985.75;;;9.71;100.00
55916;BME280;41826;53.246;-6.670;2023-05-02T00:04:59;100993.06;;;9.67;100.00
55916;BME280;41826;53.246;-6.670;2023-05-02T00:07:25;101013.44;;;9.64;100.00
55916;BME280;41826;53.246;-6.670;2023-05-02T00:09:51;101011.16;;;9.70;100.00
55916;BME280;41826;53.246;-6.670;2023-05-02T00:12:16;101019.56;;;9.74;100.00
55916;BME280;41826;53.246;-6.670;2023-05-02T00:14:42;101017.50;;;9.68;100.00
55916;BME280;41826;53.246;-6.670;2023-05-02T00:17:07;101013.59;;;9.62;100.00
55916;BME280;41826;53.246;-6.670;2023-05-02T00:19:37;101015.00;;;9.45;100.00
55916;BME280;41826;53.246;-6.670;2023-05-02T00:22:04;101029.84;;;9.35;100.00
55916;BME280;41826;53.246;-6.670;2023-05-02T00:24:29;101085.16;;;9.42;100.00
55916;BME280;41826;53.246;-6.670;2023-05-02T00:26:54;101109.28;;;9.57;100.00
55916;BME280;41826;53.246;-6.670;2023-05-02T00:29:20;101101.69;;;9.53;100.00
55916;BME280;41826;53.246;-6.670;2023-05-02T00:31:46;101103.22;;;9.24;100.00
55916;BME280;41826;53.246;-6.670;2023-05-02T00:34:11;101716.28;;;9.11;100.00
55916;BME280;41826;53.246;-6.670;2023-05-02T00:36:36;101790.66;;;9.21;100.00
55916;BME280;41826;53.246;-6.670;2023-05-02T00:39:02;101828.59;;;9.41;100.00
55916;BME280;41826;53.246;-6.670;2023-05-02T00:41:28;101844.91;;;9.58;100.00
55916;BME280;41826;53.246;-6.670;2023-05-02T00:43:53;101823.94;;;9.58;100.00
55916;BME280;41826;53.246;-6.670;2023-05-02T00:46:19;101802.28;;;9.67;100.00
55916;BME280;41826;53.246;-6.670;2023-05-02T00:48:44;101758.66;;;9.42;100.00
55916;BME280;41826;53.246;-6.670;2023-05-02T00:51:11;101738.81;;;9.50;100.00
55916;BME280;41826;53.246;-6.670;2023-05-02T00:53:38;101707.75;;;9.09;100.00
55916;BME280;41826;53.246;-6.670;2023-05-02T00:56:04;101713.63;;;9.24;100.00
55916;BME280;41826;53.246;-6.670;2023-05-02T00:58:30;101728.50;;;8.99;100.00
55916;BME280;41826;53.246;-6.670;2023-05-02T01:06:34;101812.41;;;8.85;100.00
55916;BME280;41826;53.246;-6.670;2023-05-02T01:09:28;101864.69;;;8.99;100.00
55916;BME280;41826;53.246;-6.670;2023-05-02T01:14:44;101975.41;;;8.61;100.00
55916;BME280;41826;53.246;-6.670;2023-05-02T01:17:13;102070.25;;;8.79;100.00
55916;BME280;41826;53.246;-6.670;2023-05-02T01:19:43;102138.34;;;8.65;100.00
55916;BME280;41826;53.246;-6.670;2023-05-02T01:22:10;102224.34;;;8.85;100.00
55916;BME280;41826;53.246;-6.670;2023-05-02T01:24:51;102306.19;;;8.75;100.00
55916;BME280;41826;53.246;-6.670;2023-05-02T01:30:23;102419.75;;;8.58;100.00
55916;BME280;41826;53.246;-6.670;2023-05-02T01:32:52;102507.41;;;8.66;100.00
55916;BME280;41826;53.246;-6.670;2023-05-02T01:35:20;102630.94;;;8.73;100.00
55916;BME280;41826;53.246;-6.670;2023-05-02T01:37:47;102716.31;;;8.60;100.00
55916;BME280;41826;53.246;-6.670;2023-05-02T01:40:19;102805.75;;;8.85;100.00
55916;BME280;41826;53.246;-6.670;2023-05-02T01:42:49;102843.81;;;8.93;100.00
55916;BME280;41826;53.246;-6.670;2023-05-02T01:45:17;102853.06;;;9.16;100.00
55916;BME280;41826;53.246;-6.670;2023-05-02T01:47:44;102865.31;;;8.99;100.00
55916;BME280;41826;53.246;-6.670;2023-05-02T01:50:19;102861.88;;;9.15;100.00
55916;BME280;41826;53.246;-6.670;2023-05-02T01:52:49;102872.84;;;8.88;100.00
55916;BME280;41826;53.246;-6.670;2023-05-02T01:55:16;102905.22;;;8.87;100.00
55916;BME280;41826;53.246;-6.670;2023-05-02T01:57:43;102917.47;;;8.86;100.00
55916;BME280;41826;53.246;-6.670;2023-05-02T02:00:10;102933.81;;;8.74;100.00
55916;BME280;41826;53.246;-6.670;2023-05-02T02:02:38;102952.97;;;8.75;100.00
55916;BME280;41826;53.246;-6.670;2023-05-02T02:05:06;102970.31;;;8.95;100.00
55916;BME280;41826;53.246;-6.670;2023-05-02T02:07:32;102982.09;;;8.86;100.00
55916;BME280;41826;53.246;-6.670;2023-05-02T02:09:58;102989.72;;;8.90;100.00
55916;BME280;41826;53.246;-6.670;2023-05-02T02:14:55;102984.41;;;8.92;100.00
55916;BME280;41826;53.246;-6.670;2023-05-02T02:17:26;102982.88;;;9.05;100.00
55916;BME280;41826;53.246;-6.670;2023-05-02T02:19:55;102980.53;;;8.64;100.00
55916;BME280;41826;53.246;-6.670;2023-05-02T02:22:26;102990.00;;;8.67;100.00
55916;BME280;41826;53.246;-6.670;2023-05-02T02:24:52;102996.19;;;8.66;100.00
55916;BME280;41826;53.246;-6.670;2023-05-02T02:27:19;102016.47;;;8.61;100.00
55916;BME280;41826;53.246;-6.670;2023-05-02T02:29:44;102041.50;;;8.65;100.00
55916;BME280;41826;53.246;-6.670;2023-05-02T02:32:10;102045.16;;;8.62;100.00
55916;BME280;41826;53.246;-6.670;2023-05-02T02:34:35;102026.31;;;8.70;100.00
55916;BME280;41826;53.246;-6.670;2023-05-02T02:37:08;101999.78;;;8.76;100.00
55916;BME280;41826;53.246;-6.670;2023-05-02T02:42:17;101991.13;;;8.61;100.00
55916;BME280;41826;53.246;-6.670;2023-05-02T02:47:24;101983.81;;;8.66;100.00
55916;BME280;41826;53.246;-6.670;2023-05-02T02:50:19;101965.22;;;8.84;100.00
55916;BME280;41826;53.246;-6.670;2023-05-02T02:52:54;101958.19;;;8.72;100.00
55916;BME280;41826;53.246;-6.670;2023-05-02T02:57:59;101940.34;;;8.64;100.00
55916;BME280;41826;53.246;-6.670;2023-05-02T03:00:26;101937.53;;;8.67;100.00
55916;BME280;41826;53.246;-6.670;2023-05-02T03:02:53;101914.44;;;8.99;100.00
55916;BME280;41826;53.246;-6.670;2023-05-02T03:05:21;101917.25;;;8.96;100.00
55916;BME280;41826;53.246;-6.670;2023-05-02T03:07:47;101919.03;;;8.83;100.00
55916;BME280;41826;53.246;-6.670;2023-05-02T03:10:12;101919.88;;;8.96;100.00
55916;BME280;41826;53.246;-6.670;2023-05-02T03:12:38;101924.69;;;8.89;100.00
55916;BME280;41826;53.246;-6.670;2023-05-02T03:17:57;101920.81;;;8.95;100.00
55916;BME280;41826;53.246;-6.670;2023-05-02T03:20:22;101920.53;;;9.00;100.00
55916;BME280;41826;53.246;-6.670;2023-05-02T03:22:47;101920.41;;;9.01;100.00
55916;BME280;41826;53.246;-6.670;2023-05-02T03:25:13;101920.84;;;9.08;100.00
55916;BME280;41826;53.246;-6.670;2023-05-02T03:27:38;101918.22;;;8.95;100.00
55916;BME280;41826;53.246;-6.670;2023-05-02T03:30:04;101921.25;;;9.02;100.00
55916;BME280;41826;53.246;-6.670;2023-05-02T03:32:30;101922.66;;;8.67;100.00
55916;BME280;41826;53.246;-6.670;2023-05-02T03:34:55;101924.16;;;8.84;100.00
55916;BME280;41826;53.246;-6.670;2023-05-02T03:37:23;101934.88;;;8.94;100.00
55916;BME280;41826;53.246;-6.670;2023-05-02T03:39:48;101932.16;;;9.08;100.00
55916;BME280;41826;53.246;-6.670;2023-05-02T03:42:14;101936.56;;;9.08;100.00
55916;BME280;41826;53.246;-6.670;2023-05-02T03:44:39;101944.09;;;9.13;100.00
55916;BME280;41826;53.246;-6.670;2023-05-02T03:47:05;101947.78;;;9.23;100.00
55916;BME280;41826;53.246;-6.670;2023-05-02T03:49:33;101955.50;;;8.99;100.00
55916;BME280;41826;53.246;-6.670;2023-05-02T03:51:59;101965.22;;;8.84;100.00
55916;BME280;41826;53.246;-6.670;2023-05-02T03:54:25;101973.00;;;8.98;100.00
55916;BME280;41826;53.246;-6.670;2023-05-02T03:56:55;101975.81;;;8.95;100.00
55916;BME280;41826;53.246;-6.670;2023-05-02T03:59:20;101976.25;;;9.02;100.00
55916;BME280;41826;53.246;-6.670;2023-05-02T04:01:48;101969.25;;;9.02;100.00
55916;BME280;41826;53.246;-6.670;2023-05-02T04:04:17;101973.97;;;9.10;100.00
55916;BME280;41826;53.246;-6.670;2023-05-02T04:06:42;101984.00;;;9.03;100.00
55916;BME280;41826;53.246;-6.670;2023-05-02T04:09:07;101985.34;;;8.96;100.00
55916;BME280;41826;53.246;-6.670;2023-05-02T04:11:33;101983.69;;;8.95;100.00
55916;BME280;41826;53.246;-6.670;2023-05-02T04:13:58;101982.53;;;8.86;100.00
55916;BME280;41826;53.246;-6.670;2023-05-02T04:16:24;101981.31;;;8.78;100.00
55916;BME280;41826;53.246;-6.670;2023-05-02T04:18:49;101985.47;;;8.95;100.00
55916;BME280;41826;53.246;-6.670;2023-05-02T04:21:15;101982.88;;;9.07;100.00
55916;BME280;41826;53.246;-6.670;2023-05-02T04:23:40;101986.84;;;9.00;100.00
55916;BME280;41826;53.246;-6.670;2023-05-02T04:26:05;101990.22;;;8.75;100.00
55916;BME280;41826;53.246;-6.670;2023-05-02T04:28:31;101985.47;;;8.67;100.00
55916;BME280;41826;53.246;-6.670;2023-05-02T04:30:56;101989.28;;;8.76;100.00
55916;BME280;41826;53.246;-6.670;2023-05-02T04:33:22;101990.25;;;8.88;100.00
55916;BME280;41826;53.246;-6.670;2023-05-02T04:35:48;101988.50;;;9.01;100.00
55916;BME280;41826;53.246;-6.670;2023-05-02T04:38:13;101983.88;;;8.92;100.00
55916;BME280;41826;53.246;-6.670;2023-05-02T04:40:39;101992.00;;;8.75;100.00
55916;BME280;41826;53.246;-6.670;2023-05-02T04:43:05;101981.19;;;8.66;100.00
55916;BME280;41826;53.246;-6.670;2023-05-02T04:45:30;101976.25;;;8.62;100.00
55916;BME280;41826;53.246;-6.670;2023-05-02T04:47:56;101973.63;;;8.62;100.00
55916;BME280;41826;53.246;-6.670;2023-05-02T04:50:21;101969.88;;;8.66;100.00
55916;BME280;41826;53.246;-6.670;2023-05-02T04:52:47;101958.44;;;8.54;100.00
55916;BME280;41826;53.246;-6.670;2023-05-02T04:55:12;101949.81;;;8.52;100.00
55916;BME280;41826;53.246;-6.670;2023-05-02T04:57:39;101935.38;;;8.46;100.00
55916;BME280;41826;53.246;-6.670;2023-05-02T05:00:05;101939.09;;;8.42;100.00
55916;BME280;41826;53.246;-6.670;2023-05-02T05:02:31;101929.09;;;8.49;100.00
55916;BME280;41826;53.246;-6.670;2023-05-02T05:04:57;101915.22;;;8.61;100.00
55916;BME280;41826;53.246;-6.670;2023-05-02T05:07:24;101916.22;;;8.46;100.00
55916;BME280;41826;53.246;-6.670;2023-05-02T05:09:49;101914.22;;;8.50;100.00
55916;BME280;41826;53.246;-6.670;2023-05-02T05:12:15;101912.06;;;8.56;100.00
55916;BME280;41826;53.246;-6.670;2023-05-02T05:14:40;101902.66;;;8.66;100.00
55916;BME280;41826;53.246;-6.670;2023-05-02T05:17:06;101899.50;;;8.61;100.00
55916;BME280;41826;53.246;-6.670;2023-05-02T05:19:31;101899.41;;;8.76;100.00
55916;BME280;41826;53.246;-6.670;2023-05-02T05:21:57;101896.19;;;8.72;100.00
55916;BME280;41826;53.246;-6.670;2023-05-02T05:24:22;101904.09;;;8.58;100.00
55916;BME280;41826;53.246;-6.670;2023-05-02T05:26:47;101906.03;;;8.68;100.00
55916;BME280;41826;53.246;-6.670;2023-05-02T05:29:13;101898.50;;;8.77;100.00
55916;BME280;41826;53.246;-6.670;2023-05-02T05:31:38;101899.91;;;8.68;100.00
55916;BME280;41826;53.246;-6.670;2023-05-02T05:34:04;101906.13;;;8.67;100.00
55916;BME280;41826;53.246;-6.670;2023-05-02T05:36:29;101902.16;;;8.74;100.00
55916;BME280;41826;53.246;-6.670;2023-05-02T05:38:55;101902.69;;;8.79;100.00
55916;BME280;41826;53.246;-6.670;2023-05-02T05:41:21;101918.13;;;8.97;100.00
55916;BME280;41826;53.246;-6.670;2023-05-02T05:43:47;101917.06;;;8.99;100.00
55916;BME280;41826;53.246;-6.670;2023-05-02T05:46:12;101917.69;;;9.03;100.00
55916;BME280;41826;53.246;-6.670;2023-05-02T05:48:38;101922.63;;;9.07;100.00
55916;BME280;41826;53.246;-6.670;2023-05-02T05:51:04;101923.97;;;9.51;100.00
55916;BME280;41826;53.246;-6.670;2023-05-02T05:53:29;101915.94;;;9.91;100.00
55916;BME280;41826;53.246;-6.670;2023-05-02T05:55:55;101919.81;;;9.98;100.00
55916;BME280;41826;53.246;-6.670;2023-05-02T05:58:20;101933.72;;;10.12;100.00
55916;BME280;41826;53.246;-6.670;2023-05-02T06:00:46;101949.03;;;10.31;100.00
55916;BME280;41826;53.246;-6.670;2023-05-02T06:03:11;101968.22;;;10.31;100.00
55916;BME280;41826;53.246;-6.670;2023-05-02T06:05:36;102007.00;;;10.02;100.00
55916;BME280;41826;53.246;-6.670;2023-05-02T06:08:02;102008.06;;;9.74;100.00
55916;BME280;41826;53.246;-6.670;2023-05-02T06:10:27;102031.16;;;9.69;100.00
55916;BME280;41826;53.246;-6.670;2023-05-02T06:12:53;102043.22;;;9.84;100.00
55916;BME280;41826;53.246;-6.670;2023-05-02T06:15:18;102049.81;;;10.03;100.00
55916;BME280;41826;53.246;-6.670;2023-05-02T06:17:43;102065.47;;;9.79;100.00
55916;BME280;41826;53.246;-6.670;2023-05-02T06:20:09;102068.69;;;9.82;100.00
55916;BME280;41826;53.246;-6.670;2023-05-02T06:22:35;102072.91;;;10.36;100.00
55916;BME280;41826;53.246;-6.670;2023-05-02T06:25:01;102092.81;;;10.51;100.00
55916;BME280;41826;53.246;-6.670;2023-05-02T06:27:27;102115.72;;;11.10;100.00
55916;BME280;41826;53.246;-6.670;2023-05-02T06:29:52;102145.66;;;11.44;100.00
55916;BME280;41826;53.246;-6.670;2023-05-02T06:32:18;102187.78;;;11.67;100.00
55916;BME280;41826;53.246;-6.670;2023-05-02T06:34:44;102209.25;;;11.85;100.00
55916;BME280;41826;53.246;-6.670;2023-05-02T06:37:09;102245.94;;;12.34;100.00
55916;BME280;41826;53.246;-6.670;2023-05-02T06:39:35;102276.94;;;12.31;100.00
55916;BME280;41826;53.246;-6.670;2023-05-02T06:42:02;102299.53;;;11.74;100.00
55916;BME280;41826;53.246;-6.670;2023-05-02T06:44:28;102311.59;;;12.13;100.00
55916;BME280;41826;53.246;-6.670;2023-05-02T06:46:53;102320.34;;;11.77;100.00
55916;BME280;41826;53.246;-6.670;2023-05-02T06:49:22;102358.41;;;12.56;100.00
55916;BME280;41826;53.246;-6.670;2023-05-02T06:51:47;102389.88;;;12.23;100.00
55916;BME280;41826;53.246;-6.670;2023-05-02T06:54:13;102425.69;;;12.85;100.00
55916;BME280;41826;53.246;-6.670;2023-05-02T06:56:42;102479.91;;;13.11;100.00
55916;BME280;41826;53.246;-6.670;2023-05-02T06:59:09;102526.78;;;13.43;100.00
55916;BME280;41826;53.246;-6.670;2023-05-02T07:01:36;102543.31;;;13.10;100.00
55916;BME280;41826;53.246;-6.670;2023-05-02T07:04:01;102545.28;;;12.71;100.00
55916;BME280;41826;53.246;-6.670;2023-05-02T07:06:30;102557.13;;;12.89;100.00
55916;BME280;41826;53.246;-6.670;2023-05-02T07:08:56;102572.75;;;13.63;100.00
55916;BME280;41826;53.246;-6.670;2023-05-02T07:11:21;102563.16;;;13.84;100.00
55916;BME280;41826;53.246;-6.670;2023-05-02T07:13:48;102517.63;;;14.37;100.00
55916;BME280;41826;53.246;-6.670;2023-05-02T07:16:14;102460.97;;;14.30;100.00
55916;BME280;41826;53.246;-6.670;2023-05-02T07:18:39;102410.22;;;12.80;100.00
55916;BME280;41826;53.246;-6.670;2023-05-02T07:21:06;102517.53;;;13.13;100.00
55916;BME280;41826;53.246;-6.670;2023-05-02T07:23:32;102542.56;;;13.32;100.00
55916;BME280;41826;53.246;-6.670;2023-05-02T07:25:57;102599.59;;;12.97;100.00
55916;BME280;41826;53.246;-6.670;2023-05-02T07:28:23;102599.19;;;13.15;100.00
55916;BME280;41826;53.246;-6.670;2023-05-02T07:30:48;102608.91;;;14.19;100.00
55916;BME280;41826;53.246;-6.670;2023-05-02T07:33:14;102524.34;;;14.30;100.00
55916;BME280;41826;53.246;-6.670;2023-05-02T07:35:39;102491.88;;;13.39;100.00
55916;BME280;41826;53.246;-6.670;2023-05-02T07:38:05;102514.91;;;14.05;100.00
55916;BME280;41826;53.246;-6.670;2023-05-02T07:40:30;100986.13;;;14.39;100.00
55916;BME280;41826;53.246;-6.670;2023-05-02T07:42:57;100859.19;;;14.65;100.00
55916;BME280;41826;53.246;-6.670;2023-05-02T07:45:22;100845.72;;;15.16;100.00
55916;BME280;41826;53.246;-6.670;2023-05-02T07:47:48;100757.25;;;14.87;100.00
55916;BME280;41826;53.246;-6.670;2023-05-02T07:50:13;100796.00;;;15.51;100.00
55916;BME280;41826;53.246;-6.670;2023-05-02T07:52:38;100651.84;;;16.08;100.00
55916;BME280;41826;53.246;-6.670;2023-05-02T07:55:04;100533.81;;;16.50;100.00
55916;BME280;41826;53.246;-6.670;2023-05-02T07:57:30;100356.44;;;15.84;100.00
55916;BME280;41826;53.246;-6.670;2023-05-02T07:59:55;100305.09;;;16.21;100.00
55916;BME280;41826;53.246;-6.670;2023-05-02T08:02:24;100209.19;;;16.32;100.00
55916;BME280;41826;53.246;-6.670;2023-05-02T08:04:50;100227.31;;;16.29;100.00
55916;BME280;41826;53.246;-6.670;2023-05-02T08:07:15;100291.78;;;16.92;100.00
55916;BME280;41826;53.246;-6.670;2023-05-02T08:09:41;100318.03;;;15.58;100.00
55916;BME280;41826;53.246;-6.670;2023-05-02T08:12:06;100413.44;;;15.42;100.00
55916;BME280;41826;53.246;-6.670;2023-05-02T08:14:32;100447.41;;;15.68;100.00
55916;BME280;41826;53.246;-6.670;2023-05-02T08:16:58;100337.63;;;15.78;100.00
55916;BME280;41826;53.246;-6.670;2023-05-02T08:19:24;100429.03;;;15.07;100.00
55916;BME280;41826;53.246;-6.670;2023-05-02T08:21:49;100553.78;;;14.40;100.00
55916;BME280;41826;53.246;-6.670;2023-05-02T08:24:15;100653.16;;;14.88;100.00
55916;BME280;41826;53.246;-6.670;2023-05-02T08:26:40;100747.81;;;14.93;100.00
55916;BME280;41826;53.246;-6.670;2023-05-02T08:29:06;100716.25;;;15.00;100.00
55916;BME280;41826;53.246;-6.670;2023-05-02T08:31:31;100716.84;;;14.62;100.00
55916;BME280;41826;53.246;-6.670;2023-05-02T08:33:57;100859.34;;;14.88;100.00
55916;BME280;41826;53.246;-6.670;2023-05-02T08:36:23;100958.81;;;14.89;100.00
55916;BME280;41826;53.246;-6.670;2023-05-02T08:38:48;100922.59;;;15.14;100.00
55916;BME280;41826;53.246;-6.670;2023-05-02T08:41:16;100821.50;;;15.44;100.00
55916;BME280;41826;53.246;-6.670;2023-05-02T08:43:42;100694.78;;;15.26;100.00
55916;BME280;41826;53.246;-6.670;2023-05-02T08:46:09;100734.00;;;15.22;100.00
55916;BME280;41826;53.246;-6.670;2023-05-02T08:48:36;100805.19;;;14.68;100.00
55916;BME280;41826;53.246;-6.670;2023-05-02T08:51:02;100796.97;;;15.18;100.00
55916;BME280;41826;53.246;-6.670;2023-05-02T08:53:31;100951.53;;;14.08;100.00
55916;BME280;41826;53.246;-6.670;2023-05-02T08:55:58;101053.66;;;14.07;100.00
55916;BME280;41826;53.246;-6.670;2023-05-02T08:58:24;101051.84;;;15.17;100.00
55916;BME280;41826;53.246;-6.670;2023-05-02T09:00:51;100918.69;;;16.06;100.00
55916;BME280;41826;53.246;-6.670;2023-05-02T09:05:52;100466.00;;;16.55;100.00
55916;BME280;41826;53.246;-6.670;2023-05-02T09:08:23;100355.78;;;16.39;100.00
55916;BME280;41826;53.246;-6.670;2023-05-02T09:10:49;100368.78;;;16.34;100.00
55916;BME280;41826;53.246;-6.670;2023-05-02T09:13:38;100375.00;;;16.48;100.00
55916;BME280;41826;53.246;-6.670;2023-05-02T09:16:09;100261.91;;;16.77;100.00
55916;BME280;41826;53.246;-6.670;2023-05-02T09:21:03;100262.09;;;17.10;100.00
55916;BME280;41826;53.246;-6.670;2023-05-02T09:23:31;100123.44;;;17.29;100.00
55916;BME280;41826;53.246;-6.670;2023-05-02T09:25:58;100092.59;;;17.28;100.00
55916;BME280;41826;53.246;-6.670;2023-05-02T09:28:37;100003.81;;;17.51;100.00
55916;BME280;41826;53.246;-6.670;2023-05-02T09:31:09;100007.25;;;16.85;100.00
55916;BME280;41826;53.246;-6.670;2023-05-02T09:33:36;99970.13;;;17.31;100.00
55916;BME280;41826;53.246;-6.670;2023-05-02T09:36:02;99924.66;;;17.08;100.00
55916;BME280;41826;53.246;-6.670;2023-05-02T09:38:28;99977.41;;;16.63;100.00
55916;BME280;41826;53.246;-6.670;2023-05-02T09:40:54;100013.88;;;16.61;100.00
55916;BME280;41826;53.246;-6.670;2023-05-02T09:43:22;99985.63;;;16.88;100.00
55916;BME280;41826;53.246;-6.670;2023-05-02T09:46:03;100039.31;;;16.42;100.00
55916;BME280;41826;53.246;-6.670;2023-05-02T09:48:31;100013.81;;;16.89;100.00
55916;BME280;41826;53.246;-6.670;2023-05-02T09:50:57;100014.41;;;17.44;100.00
55916;BME280;41826;53.246;-6.670;2023-05-02T09:53:26;99975.00;;;17.81;100.00
55916;BME280;41826;53.246;-6.670;2023-05-02T09:55:59;99948.13;;;18.09;100.00
55916;BME280;41826;53.246;-6.670;2023-05-02T09:58:25;99949.47;;;17.80;100.00
55916;BME280;41826;53.246;-6.670;2023-05-02T10:00:50;99973.19;;;18.33;100.00
55916;BME280;41826;53.246;-6.670;2023-05-02T10:03:17;99969.19;;;18.11;100.00
55916;BME280;41826;53.246;-6.670;2023-05-02T10:05:45;99979.72;;;17.52;100.00
55916;BME280;41826;53.246;-6.670;2023-05-02T10:08:11;99978.00;;;18.43;100.00
55916;BME280;41826;53.246;-6.670;2023-05-02T10:10:44;99920.16;;;18.45;100.00
55916;BME280;41826;53.246;-6.670;2023-05-02T10:13:12;99934.19;;;18.21;100.00
55916;BME280;41826;53.246;-6.670;2023-05-02T10:15:42;99937.78;;;17.94;100.00
55916;BME280;41826;53.246;-6.670;2023-05-02T10:18:12;99956.25;;;17.43;100.00
55916;BME280;41826;53.246;-6.670;2023-05-02T10:20:43;99955.22;;;17.44;100.00
55916;BME280;41826;53.246;-6.670;2023-05-02T10:23:11;99963.78;;;17.66;100.00
55916;BME280;41826;53.246;-6.670;2023-05-02T10:25:37;99957.66;;;17.52;100.00
55916;BME280;41826;53.246;-6.670;2023-05-02T10:28:02;99956.59;;;17.86;100.00
55916;BME280;41826;53.246;-6.670;2023-05-02T10:30:28;99951.41;;;18.05;100.00
55916;BME280;41826;53.246;-6.670;2023-05-02T10:32:58;99938.56;;;18.40;100.00
55916;BME280;41826;53.246;-6.670;2023-05-02T10:35:24;99925.31;;;17.95;100.00
55916;BME280;41826;53.246;-6.670;2023-05-02T10:37:51;99949.88;;;17.84;100.00
55916;BME280;41826;53.246;-6.670;2023-05-02T10:40:17;99972.13;;;17.69;100.00
55916;BME280;41826;53.246;-6.670;2023-05-02T10:42:45;99963.91;;;18.42;100.00
55916;BME280;41826;53.246;-6.670;2023-05-02T10:45:34;99980.63;;;18.11;100.00
55916;BME280;41826;53.246;-6.670;2023-05-02T10:48:19;100020.91;;;17.95;100.00
55916;BME280;41826;53.246;-6.670;2023-05-02T10:50:55;100040.09;;;18.04;100.00
55916;BME280;41826;53.246;-6.670;2023-05-02T10:58:39;100054.84;;;17.33;100.00
55916;BME280;41826;53.246;-6.670;2023-05-02T11:06:31;99969.06;;;17.86;100.00
55916;BME280;41826;53.246;-6.670;2023-05-02T11:11:44;99967.31;;;18.18;100.00
55916;BME280;41826;53.246;-6.670;2023-05-02T11:14:10;99980.25;;;18.46;100.00
55916;BME280;41826;53.246;-6.670;2023-05-02T11:22:31;100030.94;;;18.51;100.00
55916;BME280;41826;53.246;-6.670;2023-05-02T11:24:57;100085.78;;;18.32;100.00
55916;BME280;41826;53.246;-6.670;2023-05-02T11:29:55;100088.63;;;18.37;100.00
55916;BME280;41826;53.246;-6.670;2023-05-02T11:32:21;100135.19;;;18.60;100.00
55916;BME280;41826;53.246;-6.670;2023-05-02T11:34:48;100154.31;;;18.89;100.00
55916;BME280;41826;53.246;-6.670;2023-05-02T11:37:18;100196.72;;;18.77;100.00
55916;BME280;41826;53.246;-6.670;2023-05-02T11:39:45;100275.69;;;18.36;100.00
55916;BME280;41826;53.246;-6.670;2023-05-02T11:42:28;100263.63;;;18.54;100.00
55916;BME280;41826;53.246;-6.670;2023-05-02T11:44:59;100291.81;;;18.48;100.00
55916;BME280;41826;53.246;-6.670;2023-05-02T11:47:25;100287.72;;;18.12;100.00
55916;BME280;41826;53.246;-6.670;2023-05-02T11:49:54;100236.44;;;18.45;100.00
55916;BME280;41826;53.246;-6.670;2023-05-02T11:52:22;100300.44;;;18.57;100.00
55916;BME280;41826;53.246;-6.670;2023-05-02T11:54:48;100321.09;;;18.61;100.00
55916;BME280;41826;53.246;-6.670;2023-05-02T11:57:14;100353.00;;;18.61;100.00
55916;BME280;41826;53.246;-6.670;2023-05-02T11:59:53;100340.09;;;18.52;100.00
55916;BME280;41826;53.246;-6.670;2023-05-02T12:02:19;100358.94;;;18.63;100.00
55916;BME280;41826;53.246;-6.670;2023-05-02T12:05:01;100354.00;;;18.54;100.00
55916;BME280;41826;53.246;-6.670;2023-05-02T12:09:59;100339.69;;;18.88;100.00
55916;BME280;41826;53.246;-6.670;2023-05-02T12:12:24;100364.66;;;18.74;100.00
55916;BME280;41826;53.246;-6.670;2023-05-02T12:14:50;100416.56;;;18.63;100.00
55916;BME280;41826;53.246;-6.670;2023-05-02T12:17:16;100420.50;;;19.20;100.00
55916;BME280;41826;53.246;-6.670;2023-05-02T12:19:41;100390.28;;;19.66;100.00
55916;BME280;41826;53.246;-6.670;2023-05-02T12:22:08;100498.88;;;19.31;100.00
55916;BME280;41826;53.246;-6.670;2023-05-02T12:24:34;100542.28;;;19.58;100.00
55916;BME280;41826;53.246;-6.670;2023-05-02T12:27:13;100596.50;;;18.97;100.00
55916;BME280;41826;53.246;-6.670;2023-05-02T12:29:45;100546.16;;;19.02;100.00
55916;BME280;41826;53.246;-6.670;2023-05-02T12:32:12;100578.66;;;18.78;100.00
55916;BME280;41826;53.246;-6.670;2023-05-02T12:34:38;100528.56;;;19.01;100.00
55916;BME280;41826;53.246;-6.670;2023-05-02T12:37:05;100535.31;;;19.24;100.00
55916;BME280;41826;53.246;-6.670;2023-05-02T12:39:40;100539.00;;;19.36;100.00
55916;BME280;41826;53.246;-6.670;2023-05-02T12:42:14;100504.63;;;18.95;100.00
55916;BME280;41826;53.246;-6.670;2023-05-02T12:44:44;100525.50;;;19.04;100.00
55916;BME280;41826;53.246;-6.670;2023-05-02T12:47:12;100502.56;;;18.90;100.00
55916;BME280;41826;53.246;-6.670;2023-05-02T12:49:57;100551.75;;;18.53;100.00
55916;BME280;41826;53.246;-6.670;2023-05-02T12:52:51;100496.13;;;18.51;100.00
55916;BME280;41826;53.246;-6.670;2023-05-02T12:55:25;100570.66;;;18.23;100.00
55916;BME280;41826;53.246;-6.670;2023-05-02T12:58:06;100556.78;;;18.34;100.00
55916;BME280;41826;53.246;-6.670;2023-05-02T13:00:34;100449.72;;;18.60;100.00
55916;BME280;41826;53.246;-6.670;2023-05-02T13:03:00;100538.38;;;18.33;100.00
55916;BME280;41826;53.246;-6.670;2023-05-02T13:05:27;100555.59;;;18.44;100.00
55916;BME280;41826;53.246;-6.670;2023-05-02T13:07:52;100516.50;;;18.31;100.00
55916;BME280;41826;53.246;-6.670;2023-05-02T13:10:21;100483.81;;;18.37;100.00
55916;BME280;41826;53.246;-6.670;2023-05-02T13:12:47;100460.72;;;18.51;100.00
55916;BME280;41826;53.246;-6.670;2023-05-02T13:15:13;100445.00;;;18.56;100.00
55916;BME280;41826;53.246;-6.670;2023-05-02T13:17:39;100483.97;;;18.22;100.00
55916;BME280;41826;53.246;-6.670;2023-05-02T13:20:05;100450.09;;;18.44;100.00
55916;BME280;41826;53.246;-6.670;2023-05-02T13:22:32;100426.97;;;18.31;100.00
55916;BME280;41826;53.246;-6.670;2023-05-02T13:24:57;100405.88;;;18.16;100.00
55916;BME280;41826;53.246;-6.670;2023-05-02T13:27:23;100376.81;;;18.02;100.00
55916;BME280;41826;53.246;-6.670;2023-05-02T13:29:49;100353.50;;;17.97;100.00